createdAt,value
2023-07-04T00:01:19.394Z,55.06
2023-07-04T00:03:54.916Z,55.30
2023-07-04T00:06:25.096Z,55.47
2023-07-04T00:08:53.199Z,55.75
2023-07-04T00:11:21.542Z,55.82
2023-07-04T00:13:53.781Z,55.87
2023-07-04T00:16:22.084Z,56.00
2023-07-04T00:18:51.077Z,56.08
2023-07-04T00:21:20.143Z,56.24
2023-07-04T00:23:54.027Z,56.36
2023-07-04T00:26:24.773Z,56.34
2023-07-04T00:28:53.662Z,56.38
2023-07-04T00:31:25.360Z,56.61
2023-07-04T00:33:54.477Z,56.72
2023-07-04T00:36:22.610Z,56.87
2023-07-04T00:38:57.279Z,57.18
2023-07-04T00:41:29.975Z,57.10
2023-07-04T00:44:15.470Z,57.51
2023-07-04T00:47:06.083Z,57.66
2023-07-04T00:49:43.234Z,57.62
2023-07-04T00:52:15.433Z,57.69
2023-07-04T00:54:46.241Z,57.54
2023-07-04T00:57:15.920Z,57.73
2023-07-04T00:59:46.231Z,57.94
2023-07-04T01:02:16.936Z,57.82
2023-07-04T01:04:49.676Z,57.87
2023-07-04T01:07:24.077Z,58.24
2023-07-04T01:09:59.429Z,58.20
2023-07-04T01:12:31.292Z,58.23
2023-07-04T01:15:01.698Z,58.40
2023-07-04T01:17:31.350Z,58.34
2023-07-04T01:19:59.928Z,58.54
2023-07-04T01:22:50.138Z,58.46
2023-07-04T01:25:25.369Z,58.51
2023-07-04T01:28:00.911Z,58.48
2023-07-04T01:30:30.621Z,58.41
2023-07-04T01:33:02.121Z,58.16
2023-07-04T01:35:30.379Z,58.45
2023-07-04T01:38:00.420Z,58.38
2023-07-04T01:40:31.471Z,58.49
2023-07-04T01:43:00.321Z,58.45
2023-07-04T01:45:28.216Z,58.60
2023-07-04T01:47:56.039Z,58.66
2023-07-04T01:50:25.006Z,58.91
2023-07-04T01:52:52.905Z,58.67
2023-07-04T01:55:21.169Z,58.74
2023-07-04T01:57:50.374Z,59.02
2023-07-04T02:00:20.043Z,59.12
2023-07-04T02:02:47.985Z,59.37
2023-07-04T02:05:20.787Z,59.40
2023-07-04T02:07:48.562Z,59.63
2023-07-04T02:10:16.473Z,59.75
2023-07-04T02:12:44.367Z,59.95
2023-07-04T02:15:13.352Z,59.97
2023-07-04T02:17:41.758Z,60.17
2023-07-04T02:20:10.387Z,60.49
2023-07-04T02:22:41.979Z,60.54
2023-07-04T02:25:10.685Z,60.71
2023-07-04T02:27:38.601Z,60.39
2023-07-04T02:30:07.245Z,60.39
2023-07-04T02:32:35.056Z,60.71
2023-07-04T02:35:02.861Z,60.65
2023-07-04T02:37:30.753Z,60.62
2023-07-04T02:39:58.716Z,60.88
2023-07-04T02:42:26.468Z,60.84
2023-07-04T02:44:54.376Z,60.81
2023-07-04T02:47:27.614Z,60.80
2023-07-04T02:49:55.802Z,60.85
2023-07-04T02:52:25.302Z,60.88
2023-07-04T02:54:53.505Z,61.11
2023-07-04T02:57:23.299Z,61.01
2023-07-04T02:59:51.124Z,61.16
2023-07-04T03:02:20.049Z,61.33
2023-07-04T03:04:49.132Z,61.51
2023-07-04T03:07:17.152Z,61.64
2023-07-04T03:09:45.060Z,61.76
2023-07-04T03:12:12.892Z,61.96
2023-07-04T03:14:40.711Z,61.98
2023-07-04T03:17:09.127Z,62.21
2023-07-04T03:19:37.151Z,62.17
2023-07-04T03:22:05.573Z,62.27
2023-07-04T03:24:36.116Z,61.91
2023-07-04T03:27:04.411Z,62.00
2023-07-04T03:29:32.192Z,62.14
2023-07-04T03:31:59.965Z,62.30
2023-07-04T03:34:27.884Z,62.32
2023-07-04T03:36:55.724Z,62.13
2023-07-04T03:39:23.607Z,62.34
2023-07-04T03:41:51.449Z,62.63
2023-07-04T03:44:19.230Z,62.64
2023-07-04T03:46:47.111Z,63.05
2023-07-04T03:49:14.970Z,63.00
2023-07-04T03:51:43.024Z,63.10
2023-07-04T03:54:11.292Z,63.38
2023-07-04T03:56:39.164Z,62.77
2023-07-04T03:59:07.025Z,62.97
2023-07-04T04:01:34.894Z,62.83
2023-07-04T04:04:02.937Z,62.89
2023-07-04T04:06:30.857Z,62.79
2023-07-04T04:08:58.761Z,62.40
2023-07-04T04:11:26.786Z,62.84
2023-07-04T04:13:54.804Z,62.87
2023-07-04T04:16:23.477Z,62.39
2023-07-04T04:18:52.496Z,62.49
2023-07-04T04:21:20.430Z,62.94
2023-07-04T04:23:48.287Z,62.82
2023-07-04T04:26:16.462Z,63.15
2023-07-04T04:28:44.233Z,63.27
2023-07-04T04:31:13.195Z,63.03
2023-07-04T04:33:41.216Z,63.20
2023-07-04T04:36:09.070Z,62.98
2023-07-04T04:38:39.497Z,62.96
2023-07-04T04:41:08.130Z,62.45
2023-07-04T04:43:36.070Z,61.78
2023-07-04T04:46:04.720Z,61.28
2023-07-04T04:48:36.726Z,60.89
2023-07-04T04:51:11.542Z,61.03
2023-07-04T04:53:41.223Z,61.07
2023-07-04T04:56:09.898Z,60.97
2023-07-04T04:58:38.529Z,61.17
2023-07-04T05:01:17.800Z,61.18
2023-07-04T05:03:46.477Z,61.23
2023-07-04T05:06:14.471Z,60.90
2023-07-04T05:08:42.366Z,60.87
2023-07-04T05:11:10.371Z,60.81
2023-07-04T05:13:39.526Z,60.68
2023-07-04T05:16:11.271Z,60.56
2023-07-04T05:18:39.711Z,60.70
2023-07-04T05:21:10.554Z,61.34
2023-07-04T05:23:40.729Z,61.01
2023-07-04T05:26:29.502Z,61.05
2023-07-04T05:28:59.971Z,60.73
2023-07-04T05:31:29.492Z,60.17
2023-07-04T05:33:57.939Z,60.06
2023-07-04T05:36:29.828Z,60.22
2023-07-04T05:39:03.949Z,60.33
2023-07-04T05:41:33.709Z,60.40
2023-07-04T05:44:05.740Z,60.06
2023-07-04T05:46:34.544Z,60.26
2023-07-04T05:49:03.696Z,60.13
2023-07-04T05:51:32.480Z,59.98
2023-07-04T05:54:00.254Z,60.04
2023-07-04T05:56:31.746Z,59.69
2023-07-04T05:59:01.299Z,59.71
2023-07-04T06:01:29.194Z,59.88
2023-07-04T06:03:59.857Z,59.62
2023-07-04T06:06:29.389Z,59.36
2023-07-04T06:08:59.643Z,59.48
2023-07-04T06:11:31.582Z,59.63
2023-07-04T06:13:59.866Z,59.39
2023-07-04T06:16:27.733Z,59.38
2023-07-04T06:18:55.746Z,59.01
2023-07-04T06:21:38.401Z,58.64
2023-07-04T06:24:11.967Z,58.37
2023-07-04T06:26:39.956Z,58.82
2023-07-04T06:29:07.795Z,58.40
2023-07-04T06:31:35.667Z,58.51
2023-07-04T06:34:03.582Z,58.38
2023-07-04T06:36:31.963Z,58.72
2023-07-04T06:39:01.398Z,58.33
2023-07-04T06:41:29.321Z,58.39
2023-07-04T06:43:57.101Z,58.17
2023-07-04T06:46:25.109Z,57.40
2023-07-04T06:48:53.206Z,57.45
2023-07-04T06:51:21.840Z,57.13
2023-07-04T06:53:51.206Z,56.48
2023-07-04T06:56:21.848Z,56.45
2023-07-04T06:58:54.737Z,56.50
2023-07-04T07:01:28.975Z,56.70
2023-07-04T07:03:58.995Z,56.73
2023-07-04T07:06:28.021Z,56.78
2023-07-04T07:08:56.351Z,56.19
2023-07-04T07:11:26.268Z,55.39
2023-07-04T07:13:54.413Z,55.14
2023-07-04T07:16:24.904Z,55.00
2023-07-04T07:19:01.022Z,55.03
2023-07-04T07:21:28.950Z,55.17
2023-07-04T07:23:58.606Z,55.27
2023-07-04T07:26:29.457Z,55.17
2023-07-04T07:28:58.950Z,55.42
2023-07-04T07:31:33.858Z,55.24
2023-07-04T07:34:04.303Z,54.90
2023-07-04T07:36:42.066Z,54.56
2023-07-04T07:39:12.573Z,53.72
2023-07-04T07:41:44.683Z,53.51
2023-07-04T07:44:12.557Z,53.80
2023-07-04T07:46:40.764Z,53.42
2023-07-04T07:49:08.920Z,53.79
2023-07-04T07:51:38.870Z,53.63
2023-07-04T07:54:07.991Z,53.48
2023-07-04T07:56:45.686Z,53.21
2023-07-04T07:59:13.978Z,52.96
2023-07-04T08:01:41.794Z,52.89
2023-07-04T08:04:10.747Z,52.84
2023-07-04T08:06:43.412Z,52.83
2023-07-04T08:09:14.522Z,52.91
2023-07-04T08:11:44.533Z,52.90
2023-07-04T08:14:14.830Z,53.10
2023-07-04T08:16:44.830Z,52.66
2023-07-04T08:19:13.842Z,52.40
2023-07-04T08:21:41.754Z,51.91
2023-07-04T08:24:13.990Z,52.77
2023-07-04T08:26:45.693Z,52.44
2023-07-04T08:29:15.393Z,52.00
2023-07-04T08:31:43.981Z,51.57
2023-07-04T08:34:12.282Z,51.58
2023-07-04T08:36:41.598Z,51.14
2023-07-04T08:39:10.857Z,50.62
2023-07-04T08:41:54.257Z,50.90
2023-07-04T08:44:23.926Z,51.09
2023-07-04T08:46:56.371Z,50.28
2023-07-04T08:49:42.618Z,50.28
2023-07-04T08:52:22.773Z,49.98
2023-07-04T08:54:51.971Z,49.73
2023-07-04T08:57:32.060Z,49.37
2023-07-04T09:00:08.154Z,49.22
2023-07-04T09:02:43.958Z,48.95
2023-07-04T09:05:25.362Z,49.30
2023-07-04T09:08:15.948Z,49.09
2023-07-04T09:10:48.321Z,49.07
2023-07-04T09:13:32.898Z,48.87
2023-07-04T09:16:06.349Z,48.59
2023-07-04T09:18:43.068Z,48.79
2023-07-04T09:21:14.073Z,48.20
2023-07-04T09:23:42.907Z,48.47
2023-07-04T09:26:12.414Z,48.00
2023-07-04T09:28:42.894Z,48.25
2023-07-04T09:31:19.603Z,47.92
2023-07-04T09:33:53.845Z,47.73
2023-07-04T09:36:29.441Z,47.50
2023-07-04T09:39:00.240Z,47.35
2023-07-04T09:41:31.268Z,47.54
2023-07-04T09:44:16.453Z,47.61
2023-07-04T09:46:52.910Z,47.41
2023-07-04T09:49:30.249Z,47.66
2023-07-04T09:52:03.853Z,47.70
2023-07-04T09:54:34.504Z,46.89
2023-07-04T09:57:24.156Z,46.39
2023-07-04T09:59:55.029Z,47.09
2023-07-04T10:02:26.836Z,46.29
2023-07-04T10:04:54.855Z,46.57
2023-07-04T10:07:25.044Z,45.99
2023-07-04T10:10:13.857Z,46.04
2023-07-04T10:12:46.261Z,46.17
2023-07-04T10:15:25.768Z,46.02
2023-07-04T10:17:53.898Z,46.35
2023-07-04T10:20:21.789Z,45.91
2023-07-04T10:22:54.426Z,44.78
2023-07-04T10:25:23.804Z,46.01
2023-07-04T10:27:57.251Z,46.11
2023-07-04T10:30:32.758Z,46.04
2023-07-04T10:33:05.660Z,45.30
2023-07-04T10:35:36.681Z,45.28
2023-07-04T10:38:13.983Z,44.59
2023-07-04T10:40:42.664Z,44.56
2023-07-04T10:43:14.525Z,44.56
2023-07-04T10:45:52.371Z,44.29
2023-07-04T10:48:32.404Z,44.52
2023-07-04T10:51:04.693Z,44.59
2023-07-04T10:53:32.438Z,44.29
2023-07-04T10:56:01.296Z,44.35
2023-07-04T10:58:34.581Z,43.67
2023-07-04T11:01:07.548Z,44.20
2023-07-04T11:03:35.547Z,43.26
2023-07-04T11:06:09.908Z,42.40
2023-07-04T11:08:40.317Z,41.80
2023-07-04T11:11:14.050Z,43.17
2023-07-04T11:13:54.578Z,43.36
2023-07-04T11:16:28.476Z,43.50
2023-07-04T11:19:07.838Z,43.01
2023-07-04T11:22:06.938Z,43.00
2023-07-04T11:24:54.981Z,42.64
2023-07-04T11:27:28.119Z,42.37
2023-07-04T11:30:04.149Z,42.82
2023-07-04T11:32:38.344Z,43.27
2023-07-04T11:35:12.211Z,43.32
2023-07-04T11:37:44.590Z,43.04
2023-07-04T11:40:19.811Z,42.63
2023-07-04T11:42:52.428Z,42.49
2023-07-04T11:45:26.348Z,42.78
2023-07-04T11:48:03.592Z,42.46
2023-07-04T11:50:35.895Z,42.62
2023-07-04T11:53:11.030Z,42.77
2023-07-04T11:55:39.013Z,42.89
2023-07-04T11:58:09.862Z,42.64
2023-07-04T12:00:38.629Z,42.30
2023-07-04T12:03:19.068Z,42.81
2023-07-04T12:06:33.582Z,42.96
2023-07-04T12:09:01.782Z,42.43
2023-07-04T12:11:44.853Z,42.26
2023-07-04T12:14:15.226Z,42.49
2023-07-04T12:16:45.760Z,42.28
2023-07-04T12:19:20.778Z,42.36
2023-07-04T12:24:37.762Z,42.36
2023-07-04T12:27:06.008Z,42.42
2023-07-04T12:32:20.680Z,42.94
2023-07-04T12:37:21.157Z,42.74
2023-07-04T12:39:50.279Z,42.63
2023-07-04T12:42:28.185Z,42.26
2023-07-04T12:44:56.503Z,42.38
2023-07-04T12:47:33.478Z,41.93
2023-07-04T12:50:04.195Z,41.97
2023-07-04T12:52:35.490Z,41.79
2023-07-04T12:55:05.050Z,41.73
2023-07-04T12:57:33.658Z,41.77
2023-07-04T13:00:20.493Z,41.77
2023-07-04T13:02:49.444Z,41.65
2023-07-04T13:05:18.452Z,41.78
2023-07-04T13:07:49.508Z,41.43
2023-07-04T13:10:26.759Z,41.09
2023-07-04T13:12:55.136Z,41.14
2023-07-04T13:15:31.237Z,41.33
2023-07-04T13:18:03.372Z,41.21
2023-07-04T13:20:34.126Z,40.73
2023-07-04T13:25:54.577Z,40.33
2023-07-04T13:34:28.868Z,41.06
2023-07-04T13:37:03.517Z,41.36
2023-07-04T13:42:03.990Z,40.83
2023-07-04T13:47:04.356Z,40.46
2023-07-04T13:49:32.131Z,40.63
2023-07-04T13:52:00.039Z,40.79
2023-07-04T13:54:28.447Z,40.59
2023-07-04T13:56:56.454Z,41.38
2023-07-04T14:07:15.088Z,40.42
2023-07-04T14:09:42.881Z,39.99
2023-07-04T14:12:11.136Z,40.20
2023-07-04T14:22:11.540Z,40.50
2023-07-04T14:24:39.656Z,40.88
2023-07-04T14:27:07.823Z,40.13
2023-07-04T14:29:35.864Z,40.17
2023-07-04T14:32:04.104Z,40.73
2023-07-04T14:34:32.330Z,39.71
2023-07-04T14:37:00.946Z,39.77
2023-07-04T14:39:29.190Z,39.69
2023-07-04T14:44:30.829Z,39.31
2023-07-04T14:46:58.797Z,39.57
2023-07-04T14:49:26.986Z,40.03
2023-07-04T14:51:54.778Z,39.70
2023-07-04T14:54:22.894Z,39.85
2023-07-04T14:56:51.699Z,39.77
2023-07-04T14:59:20.050Z,39.42
2023-07-04T15:01:47.991Z,39.32
2023-07-04T15:04:16.068Z,38.99
2023-07-04T15:06:43.886Z,39.02
2023-07-04T15:09:11.768Z,38.58
2023-07-04T15:11:39.718Z,38.04
2023-07-04T15:14:07.563Z,38.64
2023-07-04T15:16:35.516Z,38.67
2023-07-04T15:19:03.675Z,38.28
2023-07-04T15:21:31.504Z,38.22
2023-07-04T15:23:59.533Z,38.19
2023-07-04T15:26:28.626Z,38.24
2023-07-04T15:28:57.508Z,38.32
2023-07-04T15:31:26.279Z,38.02
2023-07-04T15:33:54.406Z,38.30
2023-07-04T15:36:22.559Z,37.97
2023-07-04T15:38:50.638Z,38.07
2023-07-04T15:41:20.404Z,38.21
2023-07-04T15:43:50.090Z,38.38
2023-07-04T15:46:18.266Z,38.25
2023-07-04T15:48:46.850Z,37.91
2023-07-04T15:51:20.604Z,37.41
2023-07-04T15:53:49.228Z,37.38
2023-07-04T15:56:20.064Z,37.68
2023-07-04T15:58:47.917Z,37.86
2023-07-04T16:01:16.009Z,37.53
2023-07-04T16:03:44.305Z,37.84
2023-07-04T16:06:12.603Z,38.07
2023-07-04T16:08:42.287Z,37.77
2023-07-04T16:11:14.490Z,38.10
2023-07-04T16:13:43.535Z,38.35
2023-07-04T16:16:12.391Z,38.44
2023-07-04T16:18:40.448Z,38.34
2023-07-04T16:21:08.688Z,38.32
2023-07-04T16:23:36.588Z,38.49
2023-07-04T16:26:04.826Z,37.89
2023-07-04T16:28:32.648Z,38.19
2023-07-04T16:31:05.997Z,37.99
2023-07-04T16:33:34.903Z,37.73
2023-07-04T16:36:05.466Z,37.78
2023-07-04T16:38:33.771Z,37.65
2023-07-04T16:41:02.651Z,37.16
2023-07-04T16:43:31.340Z,37.15
2023-07-04T16:45:59.381Z,37.12
2023-07-04T16:48:27.362Z,37.21
2023-07-04T16:50:58.961Z,37.17
2023-07-04T16:53:27.870Z,37.36
2023-07-04T16:55:58.028Z,37.49
2023-07-04T16:58:30.202Z,37.63
2023-07-04T17:01:00.712Z,37.83
2023-07-04T17:03:29.740Z,38.14
2023-07-04T17:06:03.023Z,38.15
2023-07-04T17:08:33.365Z,38.34
2023-07-04T17:11:06.129Z,38.40
2023-07-04T17:13:37.819Z,38.39
2023-07-04T17:16:09.810Z,38.99
2023-07-04T17:18:38.007Z,39.31
2023-07-04T17:21:06.591Z,38.66
2023-07-04T17:23:34.948Z,38.61
2023-07-04T17:26:03.082Z,39.36
2023-07-04T17:28:30.965Z,38.87
2023-07-04T17:31:00.452Z,38.45
2023-07-04T17:33:29.805Z,38.27
2023-07-04T17:36:10.206Z,38.61
2023-07-04T17:38:38.871Z,38.83
2023-07-04T17:41:17.402Z,38.72
2023-07-04T17:43:45.641Z,39.91
2023-07-04T17:46:13.960Z,39.81
2023-07-04T17:48:47.018Z,40.11
2023-07-04T17:51:28.359Z,39.69
2023-07-04T17:53:56.289Z,39.56
2023-07-04T17:56:27.966Z,40.30
2023-07-04T17:58:55.797Z,39.95
2023-07-04T18:01:26.401Z,40.59
2023-07-04T18:03:56.077Z,40.04
2023-07-04T18:06:24.059Z,40.38
2023-07-04T18:08:52.166Z,40.31
2023-07-04T18:11:25.466Z,40.45
2023-07-04T18:13:56.444Z,41.18
2023-07-04T18:16:26.341Z,41.25
2023-07-04T18:18:54.479Z,41.51
2023-07-04T18:21:24.420Z,41.25
2023-07-04T18:23:56.467Z,40.99
2023-07-04T18:26:24.731Z,40.97
2023-07-04T18:28:55.310Z,42.00
2023-07-04T18:31:30.255Z,42.38
2023-07-04T18:34:03.580Z,42.55
2023-07-04T18:36:34.549Z,42.58
2023-07-04T18:39:03.696Z,42.35
2023-07-04T18:41:37.405Z,42.89
2023-07-04T18:44:07.059Z,42.96
2023-07-04T18:46:36.893Z,43.54
2023-07-04T18:49:05.591Z,43.56
2023-07-04T18:51:35.946Z,43.52
2023-07-04T18:54:04.408Z,43.42
2023-07-04T18:56:37.846Z,43.25
2023-07-04T18:59:05.768Z,42.93
2023-07-04T19:01:34.446Z,43.22
2023-07-04T19:04:02.854Z,43.31
2023-07-04T19:06:35.381Z,43.52
2023-07-04T19:09:04.995Z,44.01
2023-07-04T19:11:40.081Z,43.65
2023-07-04T19:14:19.114Z,43.86
2023-07-04T19:16:52.924Z,43.89
2023-07-04T19:19:33.070Z,45.37
2023-07-04T19:22:05.693Z,45.62
2023-07-04T19:24:35.102Z,45.74
2023-07-04T19:27:03.816Z,45.79
2023-07-04T19:29:32.401Z,46.01
2023-07-04T19:32:02.101Z,46.33
2023-07-04T19:34:30.404Z,46.29
2023-07-04T19:36:58.704Z,46.40
2023-07-04T19:39:28.422Z,46.60
2023-07-04T19:41:56.262Z,47.04
2023-07-04T19:44:25.312Z,47.55
2023-07-04T19:46:54.109Z,47.28
2023-07-04T19:49:22.213Z,47.01
2023-07-04T19:51:50.549Z,47.19
2023-07-04T19:54:19.046Z,47.29
2023-07-04T19:56:46.995Z,46.96
2023-07-04T19:59:14.742Z,46.80
2023-07-04T20:01:42.749Z,47.97
2023-07-04T20:04:10.727Z,47.11
2023-07-04T20:06:39.245Z,47.25
2023-07-04T20:09:07.372Z,47.34
2023-07-04T20:11:35.355Z,48.20
2023-07-04T20:14:03.936Z,48.58
2023-07-04T20:16:33.362Z,48.35
2023-07-04T20:19:01.725Z,48.58
2023-07-04T20:21:29.989Z,49.09
2023-07-04T20:23:57.973Z,48.95
2023-07-04T20:26:28.326Z,48.85
2023-07-04T20:28:59.363Z,48.97
2023-07-04T20:31:27.740Z,49.32
2023-07-04T20:33:56.104Z,49.42
2023-07-04T20:36:23.967Z,49.57
2023-07-04T20:38:52.894Z,49.63
2023-07-04T20:41:21.365Z,50.27
2023-07-04T20:43:49.184Z,50.18
2023-07-04T20:46:17.096Z,49.28
2023-07-04T20:48:45.289Z,49.77
2023-07-04T20:51:13.588Z,49.72
2023-07-04T20:53:41.837Z,50.22
2023-07-04T20:56:10.217Z,50.35
2023-07-04T20:58:38.376Z,49.92
2023-07-04T21:01:07.328Z,49.62
2023-07-04T21:03:38.189Z,50.43
2023-07-04T21:06:06.907Z,50.19
2023-07-04T21:08:35.763Z,50.28
2023-07-04T21:11:04.750Z,50.51
2023-07-04T21:13:34.803Z,50.52
2023-07-04T21:16:09.995Z,51.16
2023-07-04T21:18:39.184Z,51.08
2023-07-04T21:21:07.662Z,50.97
2023-07-04T21:23:36.623Z,51.36
2023-07-04T21:26:07.658Z,51.00
2023-07-04T21:28:36.632Z,51.19
2023-07-04T21:31:07.594Z,51.48
2023-07-04T21:33:36.317Z,51.85
2023-07-04T21:36:05.171Z,52.36
2023-07-04T21:38:35.428Z,52.14
2023-07-04T21:41:04.345Z,52.13
2023-07-04T21:43:32.397Z,52.35
2023-07-04T21:46:05.695Z,52.32
2023-07-04T21:48:33.743Z,52.30
2023-07-04T21:51:04.501Z,52.64
2023-07-04T21:53:33.089Z,52.66
2023-07-04T21:56:02.984Z,52.86
2023-07-04T21:58:31.252Z,52.89
2023-07-04T22:01:06.091Z,52.90
2023-07-04T22:03:36.306Z,53.09
2023-07-04T22:06:07.321Z,53.14
2023-07-04T22:08:36.655Z,53.13
2023-07-04T22:11:05.937Z,53.44
2023-07-04T22:13:35.233Z,53.61
2023-07-04T22:16:05.592Z,54.30
2023-07-04T22:18:34.153Z,54.55
2023-07-04T22:21:10.214Z,54.23
2023-07-04T22:23:39.515Z,54.45
2023-07-04T22:26:09.632Z,54.67
2023-07-04T22:28:38.290Z,54.94
2023-07-04T22:31:14.592Z,54.89
2023-07-04T22:34:00.146Z,55.49
2023-07-04T22:36:29.885Z,55.71
2023-07-04T22:38:59.082Z,55.82
2023-07-04T22:41:28.468Z,55.94
2023-07-04T22:43:56.396Z,56.12
2023-07-04T22:46:25.269Z,55.94
2023-07-04T22:48:53.601Z,55.92
2023-07-04T22:51:21.418Z,56.10
2023-07-04T22:53:50.844Z,56.26
2023-07-04T22:56:19.468Z,56.46
2023-07-04T22:58:47.942Z,56.61
2023-07-04T23:01:19.219Z,56.60
2023-07-04T23:03:49.105Z,56.82
2023-07-04T23:06:18.158Z,57.13
2023-07-04T23:08:46.246Z,57.08
2023-07-04T23:11:14.975Z,57.03
2023-07-04T23:13:42.941Z,57.40
2023-07-04T23:16:20.370Z,57.57
2023-07-04T23:18:49.667Z,57.81
2023-07-04T23:21:18.567Z,57.69
2023-07-04T23:23:48.082Z,57.56
2023-07-04T23:26:19.110Z,57.66
2023-07-04T23:28:47.145Z,57.81
2023-07-04T23:31:15.087Z,58.04
2023-07-04T23:33:45.504Z,58.01
2023-07-04T23:36:17.612Z,57.90
2023-07-04T23:38:48.561Z,57.98
2023-07-04T23:41:17.263Z,58.14
2023-07-04T23:43:45.877Z,58.43
2023-07-04T23:46:14.815Z,58.27
2023-07-04T23:48:44.016Z,58.38
2023-07-04T23:51:12.460Z,58.14
2023-07-04T23:53:40.337Z,58.29
2023-07-04T23:56:09.520Z,58.64
2023-07-04T23:58:37.424Z,58.73
